sensor_id;sensor_type;location;lat;lon;timestamp;temperature;humidity
2749;DHT22;1382;52.142;11.618;2023-08-07T00:02:03;22.10;53.90
2749;DHT22;1382;52.142;11.618;2023-08-07T00:04:30;22.10;54.60
2749;DHT22;1382;52.142;11.618;2023-08-07T00:06:56;22.10;53.60
2749;DHT22;1382;52.142;11.618;2023-08-07T00:09:23;22.10;53.80
2749;DHT22;1382;52.142;11.618;2023-08-07T00:11:50;22.10;53.60
2749;DHT22;1382;52.142;11.618;2023-08-07T00:14:17;22.10;53.80
2749;DHT22;1382;52.142;11.618;2023-08-07T00:16:44;22.10;53.80
2749;DHT22;1382;52.142;11.618;2023-08-07T00:19:12;22.00;54.30
2749;DHT22;1382;52.142;11.618;2023-08-07T00:21:39;22.00;54.10
2749;DHT22;1382;52.142;11.618;2023-08-07T00:24:06;22.00;54.20
2749;DHT22;1382;52.142;11.618;2023-08-07T00:26:33;22.00;54.30
2749;DHT22;1382;52.142;11.618;2023-08-07T00:29:00;21.90;54.30
2749;DHT22;1382;52.142;11.618;2023-08-07T00:31:27;21.90;54.50
2749;DHT22;1382;52.142;11.618;2023-08-07T00:33:54;21.90;54.30
2749;DHT22;1382;52.142;11.618;2023-08-07T00:36:22;21.80;54.50
2749;DHT22;1382;52.142;11.618;2023-08-07T00:38:49;21.80;54.70
2749;DHT22;1382;52.142;11.618;2023-08-07T00:41:16;21.70;54.90
2749;DHT22;1382;52.142;11.618;2023-08-07T00:43:43;21.70;55.20
2749;DHT22;1382;52.142;11.618;2023-08-07T00:46:10;21.60;55.30
2749;DHT22;1382;52.142;11.618;2023-08-07T00:48:37;21.60;55.00
2749;DHT22;1382;52.142;11.618;2023-08-07T00:51:04;21.60;55.10
2749;DHT22;1382;52.142;11.618;2023-08-07T00:53:33;21.60;55.20
2749;DHT22;1382;52.142;11.618;2023-08-07T00:56:00;21.50;55.40
2749;DHT22;1382;52.142;11.618;2023-08-07T00:58:26;21.50;55.40
2749;DHT22;1382;52.142;11.618;2023-08-07T01:00:53;21.50;55.10
2749;DHT22;1382;52.142;11.618;2023-08-07T01:03:20;21.50;54.80
2749;DHT22;1382;52.142;11.618;2023-08-07T01:05:47;21.50;54.80
2749;DHT22;1382;52.142;11.618;2023-08-07T01:08:14;21.40;54.80
2749;DHT22;1382;52.142;11.618;2023-08-07T01:10:51;21.40;54.80
2749;DHT22;1382;52.142;11.618;2023-08-07T01:13:27;21.40;54.70
2749;DHT22;1382;52.142;11.618;2023-08-07T01:15:58;21.40;54.40
2749;DHT22;1382;52.142;11.618;2023-08-07T01:18:27;21.40;54.40
2749;DHT22;1382;52.142;11.618;2023-08-07T01:20:54;21.40;54.10
2749;DHT22;1382;52.142;11.618;2023-08-07T01:23:22;21.40;54.10
2749;DHT22;1382;52.142;11.618;2023-08-07T01:25:49;21.40;54.30
2749;DHT22;1382;52.142;11.618;2023-08-07T01:28:21;21.40;54.00
2749;DHT22;1382;52.142;11.618;2023-08-07T01:30:55;21.40;54.40
2749;DHT22;1382;52.142;11.618;2023-08-07T01:33:30;21.30;54.20
2749;DHT22;1382;52.142;11.618;2023-08-07T01:35:59;21.30;54.30
2749;DHT22;1382;52.142;11.618;2023-08-07T01:38:29;21.30;54.40
2749;DHT22;1382;52.142;11.618;2023-08-07T01:40:57;21.40;54.70
2749;DHT22;1382;52.142;11.618;2023-08-07T01:43:24;21.30;54.00
2749;DHT22;1382;52.142;11.618;2023-08-07T01:45:51;21.20;54.80
2749;DHT22;1382;52.142;11.618;2023-08-07T01:48:17;21.20;54.60
2749;DHT22;1382;52.142;11.618;2023-08-07T01:50:45;21.10;54.80
2749;DHT22;1382;52.142;11.618;2023-08-07T01:53:12;21.10;55.00
2749;DHT22;1382;52.142;11.618;2023-08-07T01:55:40;21.10;54.80
2749;DHT22;1382;52.142;11.618;2023-08-07T01:58:07;21.00;55.30
2749;DHT22;1382;52.142;11.618;2023-08-07T02:00:34;21.00;55.20
2749;DHT22;1382;52.142;11.618;2023-08-07T02:03:00;21.00;54.90
2749;DHT22;1382;52.142;11.618;2023-08-07T02:05:27;21.00;55.00
2749;DHT22;1382;52.142;11.618;2023-08-07T02:07:54;20.90;54.80
2749;DHT22;1382;52.142;11.618;2023-08-07T02:10:21;20.90;55.60
2749;DHT22;1382;52.142;11.618;2023-08-07T02:12:49;20.90;55.40
2749;DHT22;1382;52.142;11.618;2023-08-07T02:15:16;20.90;56.10
2749;DHT22;1382;52.142;11.618;2023-08-07T02:17:43;20.80;55.40
2749;DHT22;1382;52.142;11.618;2023-08-07T02:20:10;20.80;55.30
2749;DHT22;1382;52.142;11.618;2023-08-07T02:22:37;20.80;55.40
2749;DHT22;1382;52.142;11.618;2023-08-07T02:25:05;20.80;56.10
2749;DHT22;1382;52.142;11.618;2023-08-07T02:27:32;20.70;55.40
2749;DHT22;1382;52.142;11.618;2023-08-07T02:30:00;20.70;55.20
2749;DHT22;1382;52.142;11.618;2023-08-07T02:32:27;20.70;55.50
2749;DHT22;1382;52.142;11.618;2023-08-07T02:34:54;20.70;55.10
2749;DHT22;1382;52.142;11.618;2023-08-07T02:37:20;20.70;55.30
2749;DHT22;1382;52.142;11.618;2023-08-07T02:39:47;20.70;56.00
2749;DHT22;1382;52.142;11.618;2023-08-07T02:42:14;20.60;55.60
2749;DHT22;1382;52.142;11.618;2023-08-07T02:44:41;20.60;55.50
2749;DHT22;1382;52.142;11.618;2023-08-07T02:47:09;20.60;56.10
2749;DHT22;1382;52.142;11.618;2023-08-07T02:49:36;20.60;55.40
2749;DHT22;1382;52.142;11.618;2023-08-07T02:52:03;20.60;55.60
2749;DHT22;1382;52.142;11.618;2023-08-07T02:54:30;20.60;55.40
2749;DHT22;1382;52.142;11.618;2023-08-07T02:56:57;20.60;55.70
2749;DHT22;1382;52.142;11.618;2023-08-07T02:59:24;20.60;55.50
2749;DHT22;1382;52.142;11.618;2023-08-07T03:01:51;20.60;56.30
2749;DHT22;1382;52.142;11.618;2023-08-07T03:04:19;20.60;55.90
2749;DHT22;1382;52.142;11.618;2023-08-07T03:06:46;20.60;55.80
2749;DHT22;1382;52.142;11.618;2023-08-07T03:09:13;20.50;56.00
2749;DHT22;1382;52.142;11.618;2023-08-07T03:11:39;20.50;55.90
2749;DHT22;1382;52.142;11.618;2023-08-07T03:14:06;20.50;56.60
2749;DHT22;1382;52.142;11.618;2023-08-07T03:16:33;20.50;57.10
2749;DHT22;1382;52.142;11.618;2023-08-07T03:19:00;20.40;56.00
2749;DHT22;1382;52.142;11.618;2023-08-07T03:21:28;20.40;56.80
2749;DHT22;1382;52.142;11.618;2023-08-07T03:23:55;20.40;56.90
2749;DHT22;1382;52.142;11.618;2023-08-07T03:26:21;20.30;56.70
2749;DHT22;1382;52.142;11.618;2023-08-07T03:28:48;20.40;56.80
2749;DHT22;1382;52.142;11.618;2023-08-07T03:31:16;20.30;57.20
2749;DHT22;1382;52.142;11.618;2023-08-07T03:33:43;20.30;57.40
2749;DHT22;1382;52.142;11.618;2023-08-07T03:36:10;20.30;57.10
2749;DHT22;1382;52.142;11.618;2023-08-07T03:38:38;20.30;57.40
2749;DHT22;1382;52.142;11.618;2023-08-07T03:41:05;20.20;56.60
2749;DHT22;1382;52.142;11.618;2023-08-07T03:43:31;20.20;57.20
2749;DHT22;1382;52.142;11.618;2023-08-07T03:45:58;20.20;57.60
2749;DHT22;1382;52.142;11.618;2023-08-07T03:48:29;20.20;57.10
2749;DHT22;1382;52.142;11.618;2023-08-07T03:51:02;20.10;57.10
2749;DHT22;1382;52.142;11.618;2023-08-07T03:53:29;20.10;56.70
2749;DHT22;1382;52.142;11.618;2023-08-07T03:55:57;20.10;56.90
2749;DHT22;1382;52.142;11.618;2023-08-07T03:58:24;20.10;57.00
2749;DHT22;1382;52.142;11.618;2023-08-07T04:00:51;20.10;56.60
2749;DHT22;1382;52.142;11.618;2023-08-07T04:03:19;20.20;56.20
2749;DHT22;1382;52.142;11.618;2023-08-07T04:05:46;20.20;56.70
2749;DHT22;1382;52.142;11.618;2023-08-07T04:08:13;20.20;56.30
2749;DHT22;1382;52.142;11.618;2023-08-07T04:10:40;20.20;58.00
2749;DHT22;1382;52.142;11.618;2023-08-07T04:13:08;20.20;56.60
2749;DHT22;1382;52.142;11.618;2023-08-07T04:15:35;20.20;56.20
2749;DHT22;1382;52.142;11.618;2023-08-07T04:18:02;20.20;56.80
2749;DHT22;1382;52.142;11.618;2023-08-07T04:20:29;20.20;56.80
2749;DHT22;1382;52.142;11.618;2023-08-07T04:22:56;20.20;56.70
2749;DHT22;1382;52.142;11.618;2023-08-07T04:25:23;20.20;57.20
2749;DHT22;1382;52.142;11.618;2023-08-07T04:27:50;20.20;57.00
2749;DHT22;1382;52.142;11.618;2023-08-07T04:30:18;20.20;57.80
2749;DHT22;1382;52.142;11.618;2023-08-07T04:32:44;20.20;57.20
2749;DHT22;1382;52.142;11.618;2023-08-07T04:35:11;20.10;56.60
2749;DHT22;1382;52.142;11.618;2023-08-07T04:37:38;20.10;57.80
2749;DHT22;1382;52.142;11.618;2023-08-07T04:40:08;20.10;58.00
2749;DHT22;1382;52.142;11.618;2023-08-07T04:42:35;20.10;58.40
2749;DHT22;1382;52.142;11.618;2023-08-07T04:45:02;20.10;57.70
2749;DHT22;1382;52.142;11.618;2023-08-07T04:47:30;20.10;58.10
2749;DHT22;1382;52.142;11.618;2023-08-07T04:49:57;20.10;58.60
2749;DHT22;1382;52.142;11.618;2023-08-07T04:52:23;20.10;58.70
2749;DHT22;1382;52.142;11.618;2023-08-07T04:54:52;20.10;58.20
2749;DHT22;1382;52.142;11.618;2023-08-07T04:57:19;20.10;57.90
2749;DHT22;1382;52.142;11.618;2023-08-07T04:59:46;20.10;58.20
2749;DHT22;1382;52.142;11.618;2023-08-07T05:02:13;20.20;58.70
2749;DHT22;1382;52.142;11.618;2023-08-07T05:04:41;20.00;58.90
2749;DHT22;1382;52.142;11.618;2023-08-07T05:07:08;20.10;58.90
2749;DHT22;1382;52.142;11.618;2023-08-07T05:09:34;20.20;58.80
2749;DHT22;1382;52.142;11.618;2023-08-07T05:12:01;20.20;58.70
2749;DHT22;1382;52.142;11.618;2023-08-07T05:14:29;20.20;58.80
2749;DHT22;1382;52.142;11.618;2023-08-07T05:16:56;20.20;58.40
2749;DHT22;1382;52.142;11.618;2023-08-07T05:19:22;20.20;58.50
2749;DHT22;1382;52.142;11.618;2023-08-07T05:21:50;20.20;58.80
2749;DHT22;1382;52.142;11.618;2023-08-07T05:24:18;20.20;59.10
2749;DHT22;1382;52.142;11.618;2023-08-07T05:26:45;20.20;58.70
2749;DHT22;1382;52.142;11.618;2023-08-07T05:29:11;20.20;58.30
2749;DHT22;1382;52.142;11.618;2023-08-07T05:31:38;20.20;58.10
2749;DHT22;1382;52.142;11.618;2023-08-07T05:34:05;20.20;58.40
2749;DHT22;1382;52.142;11.618;2023-08-07T05:36:32;20.20;58.50
2749;DHT22;1382;52.142;11.618;2023-08-07T05:39:00;20.20;58.10
2749;DHT22;1382;52.142;11.618;2023-08-07T05:41:27;20.30;58.40
2749;DHT22;1382;52.142;11.618;2023-08-07T05:43:53;20.30;58.10
2749;DHT22;1382;52.142;11.618;2023-08-07T05:46:20;20.30;58.80
2749;DHT22;1382;52.142;11.618;2023-08-07T05:48:47;20.30;58.60
2749;DHT22;1382;52.142;11.618;2023-08-07T05:51:14;20.20;58.60
2749;DHT22;1382;52.142;11.618;2023-08-07T05:53:41;20.20;58.60
2749;DHT22;1382;52.142;11.618;2023-08-07T05:56:09;20.20;58.70
2749;DHT22;1382;52.142;11.618;2023-08-07T05:58:35;20.30;58.20
2749;DHT22;1382;52.142;11.618;2023-08-07T06:01:02;20.30;58.90
2749;DHT22;1382;52.142;11.618;2023-08-07T06:03:29;20.30;59.00
2749;DHT22;1382;52.142;11.618;2023-08-07T06:05:56;20.30;58.70
2749;DHT22;1382;52.142;11.618;2023-08-07T06:08:23;20.30;58.80
2749;DHT22;1382;52.142;11.618;2023-08-07T06:10:50;20.30;58.80
2749;DHT22;1382;52.142;11.618;2023-08-07T06:13:18;20.30;58.60
2749;DHT22;1382;52.142;11.618;2023-08-07T06:15:56;20.30;58.20
2749;DHT22;1382;52.142;11.618;2023-08-07T06:18:23;20.40;58.70
2749;DHT22;1382;52.142;11.618;2023-08-07T06:20:50;20.40;58.10
2749;DHT22;1382;52.142;11.618;2023-08-07T06:23:16;20.40;58.40
2749;DHT22;1382;52.142;11.618;2023-08-07T06:25:43;20.40;58.40
2749;DHT22;1382;52.142;11.618;2023-08-07T06:28:10;20.60;58.30
2749;DHT22;1382;52.142;11.618;2023-08-07T06:30:38;20.50;58.50
2749;DHT22;1382;52.142;11.618;2023-08-07T06:33:05;20.50;57.80
2749;DHT22;1382;52.142;11.618;2023-08-07T06:35:37;20.50;57.50
2749;DHT22;1382;52.142;11.618;2023-08-07T06:38:04;20.60;57.30
2749;DHT22;1382;52.142;11.618;2023-08-07T06:40:31;20.60;57.30
2749;DHT22;1382;52.142;11.618;2023-08-07T06:42:58;20.60;57.00
2749;DHT22;1382;52.142;11.618;2023-08-07T06:45:25;20.70;56.90
2749;DHT22;1382;52.142;11.618;2023-08-07T06:47:53;20.70;56.60
2749;DHT22;1382;52.142;11.618;2023-08-07T06:50:20;20.70;57.00
2749;DHT22;1382;52.142;11.618;2023-08-07T06:52:46;20.70;56.90
2749;DHT22;1382;52.142;11.618;2023-08-07T06:55:13;20.70;57.00
2749;DHT22;1382;52.142;11.618;2023-08-07T06:57:40;20.70;57.20
2749;DHT22;1382;52.142;11.618;2023-08-07T07:00:08;20.70;57.80
2749;DHT22;1382;52.142;11.618;2023-08-07T07:02:35;20.70;57.50
2749;DHT22;1382;52.142;11.618;2023-08-07T07:05:03;20.70;57.60
2749;DHT22;1382;52.142;11.618;2023-08-07T07:07:30;20.80;58.20
2749;DHT22;1382;52.142;11.618;2023-08-07T07:09:57;20.70;57.70
2749;DHT22;1382;52.142;11.618;2023-08-07T07:12:24;20.70;57.60
2749;DHT22;1382;52.142;11.618;2023-08-07T07:14:51;20.70;57.80
2749;DHT22;1382;52.142;11.618;2023-08-07T07:17:18;20.70;57.90
2749;DHT22;1382;52.142;11.618;2023-08-07T07:19:44;20.80;58.10
2749;DHT22;1382;52.142;11.618;2023-08-07T07:22:12;20.70;57.60
2749;DHT22;1382;52.142;11.618;2023-08-07T07:24:39;20.80;57.90
2749;DHT22;1382;52.142;11.618;2023-08-07T07:27:06;20.80;57.50
2749;DHT22;1382;52.142;11.618;2023-08-07T07:29:33;20.80;57.90
2749;DHT22;1382;52.142;11.618;2023-08-07T07:32:00;20.80;57.60
2749;DHT22;1382;52.142;11.618;2023-08-07T07:34:27;20.80;57.70
2749;DHT22;1382;52.142;11.618;2023-08-07T07:36:54;20.80;57.50
2749;DHT22;1382;52.142;11.618;2023-08-07T07:39:22;20.80;57.60
2749;DHT22;1382;52.142;11.618;2023-08-07T07:41:49;20.90;57.80
2749;DHT22;1382;52.142;11.618;2023-08-07T07:44:16;21.00;57.60
2749;DHT22;1382;52.142;11.618;2023-08-07T07:46:43;20.90;57.40
2749;DHT22;1382;52.142;11.618;2023-08-07T07:49:10;20.90;57.20
2749;DHT22;1382;52.142;11.618;2023-08-07T07:51:37;20.90;57.00
2749;DHT22;1382;52.142;11.618;2023-08-07T07:54:04;20.90;57.00
2749;DHT22;1382;52.142;11.618;2023-08-07T07:56:41;20.90;56.70
2749;DHT22;1382;52.142;11.618;2023-08-07T07:59:08;20.90;56.90
2749;DHT22;1382;52.142;11.618;2023-08-07T08:01:35;21.00;56.90
2749;DHT22;1382;52.142;11.618;2023-08-07T08:04:03;21.00;56.60
2749;DHT22;1382;52.142;11.618;2023-08-07T08:06:30;21.00;56.40
2749;DHT22;1382;52.142;11.618;2023-08-07T08:08:56;21.00;55.80
2749;DHT22;1382;52.142;11.618;2023-08-07T08:11:23;21.00;54.90
2749;DHT22;1382;52.142;11.618;2023-08-07T08:13:52;21.10;55.10
2749;DHT22;1382;52.142;11.618;2023-08-07T08:16:18;21.00;54.70
2749;DHT22;1382;52.142;11.618;2023-08-07T08:18:45;21.00;54.80
2749;DHT22;1382;52.142;11.618;2023-08-07T08:21:12;21.00;55.10
2749;DHT22;1382;52.142;11.618;2023-08-07T08:23:39;21.00;55.20
2749;DHT22;1382;52.142;11.618;2023-08-07T08:26:06;21.00;55.40
2749;DHT22;1382;52.142;11.618;2023-08-07T08:28:33;21.10;55.50
2749;DHT22;1382;52.142;11.618;2023-08-07T08:31:01;21.00;55.90
2749;DHT22;1382;52.142;11.618;2023-08-07T08:33:28;21.10;56.00
2749;DHT22;1382;52.142;11.618;2023-08-07T08:35:55;21.00;55.80
2749;DHT22;1382;52.142;11.618;2023-08-07T08:38:22;21.00;55.90
2749;DHT22;1382;52.142;11.618;2023-08-07T08:40:51;21.10;55.90
2749;DHT22;1382;52.142;11.618;2023-08-07T08:43:19;21.10;56.30
2749;DHT22;1382;52.142;11.618;2023-08-07T08:45:46;21.10;55.60
2749;DHT22;1382;52.142;11.618;2023-08-07T08:48:19;21.20;55.50
2749;DHT22;1382;52.142;11.618;2023-08-07T08:50:46;21.30;55.40
2749;DHT22;1382;52.142;11.618;2023-08-07T08:53:14;21.30;55.60
2749;DHT22;1382;52.142;11.618;2023-08-07T08:55:42;21.30;55.50
2749;DHT22;1382;52.142;11.618;2023-08-07T08:58:09;21.40;55.70
2749;DHT22;1382;52.142;11.618;2023-08-07T09:00:36;21.40;55.80
2749;DHT22;1382;52.142;11.618;2023-08-07T09:03:03;21.50;56.10
2749;DHT22;1382;52.142;11.618;2023-08-07T09:05:31;21.60;56.30
2749;DHT22;1382;52.142;11.618;2023-08-07T09:07:59;21.60;56.20
2749;DHT22;1382;52.142;11.618;2023-08-07T09:10:27;21.70;55.80
2749;DHT22;1382;52.142;11.618;2023-08-07T09:13:02;21.80;55.60
2749;DHT22;1382;52.142;11.618;2023-08-07T09:15:31;21.90;55.40
2749;DHT22;1382;52.142;11.618;2023-08-07T09:17:58;22.00;55.40
2749;DHT22;1382;52.142;11.618;2023-08-07T09:20:26;22.10;55.50
2749;DHT22;1382;52.142;11.618;2023-08-07T09:22:54;22.10;55.30
2749;DHT22;1382;52.142;11.618;2023-08-07T09:25:27;22.20;54.70
2749;DHT22;1382;52.142;11.618;2023-08-07T09:27:55;22.20;54.20
2749;DHT22;1382;52.142;11.618;2023-08-07T09:30:26;22.30;54.60
2749;DHT22;1382;52.142;11.618;2023-08-07T09:32:53;22.30;54.50
2749;DHT22;1382;52.142;11.618;2023-08-07T09:35:21;22.40;54.10
2749;DHT22;1382;52.142;11.618;2023-08-07T09:37:48;22.50;53.80
2749;DHT22;1382;52.142;11.618;2023-08-07T09:40:17;22.60;53.60
2749;DHT22;1382;52.142;11.618;2023-08-07T09:42:44;22.70;53.30
2749;DHT22;1382;52.142;11.618;2023-08-07T09:45:21;22.80;53.10
2749;DHT22;1382;52.142;11.618;2023-08-07T09:47:57;22.90;53.00
2749;DHT22;1382;52.142;11.618;2023-08-07T09:50:24;23.00;52.60
2749;DHT22;1382;52.142;11.618;2023-08-07T09:52:51;23.00;53.00
2749;DHT22;1382;52.142;11.618;2023-08-07T09:55:19;23.10;52.60
2749;DHT22;1382;52.142;11.618;2023-08-07T09:57:46;23.20;52.50
2749;DHT22;1382;52.142;11.618;2023-08-07T10:00:13;23.20;52.20
2749;DHT22;1382;52.142;11.618;2023-08-07T10:02:42;23.40;51.80
2749;DHT22;1382;52.142;11.618;2023-08-07T10:05:10;23.40;51.00
2749;DHT22;1382;52.142;11.618;2023-08-07T10:07:37;23.40;51.20
2749;DHT22;1382;52.142;11.618;2023-08-07T10:10:05;23.50;51.40
2749;DHT22;1382;52.142;11.618;2023-08-07T10:12:34;23.50;50.50
2749;DHT22;1382;52.142;11.618;2023-08-07T10:15:01;23.60;50.70
2749;DHT22;1382;52.142;11.618;2023-08-07T10:17:30;23.70;50.80
2749;DHT22;1382;52.142;11.618;2023-08-07T10:19:58;23.70;50.20
2749;DHT22;1382;52.142;11.618;2023-08-07T10:22:25;23.80;50.80
2749;DHT22;1382;52.142;11.618;2023-08-07T10:24:53;23.90;51.20
2749;DHT22;1382;52.142;11.618;2023-08-07T10:27:23;24.00;49.90
2749;DHT22;1382;52.142;11.618;2023-08-07T10:29:54;24.00;49.80
2749;DHT22;1382;52.142;11.618;2023-08-07T10:32:22;24.10;49.40
2749;DHT22;1382;52.142;11.618;2023-08-07T10:34:51;24.10;48.40
2749;DHT22;1382;52.142;11.618;2023-08-07T10:37:32;24.10;48.80
2749;DHT22;1382;52.142;11.618;2023-08-07T10:40:03;24.30;47.80
2749;DHT22;1382;52.142;11.618;2023-08-07T10:42:49;24.20;47.10
2749;DHT22;1382;52.142;11.618;2023-08-07T10:45:18;24.20;46.90
2749;DHT22;1382;52.142;11.618;2023-08-07T10:47:56;24.10;46.70
2749;DHT22;1382;52.142;11.618;2023-08-07T10:50:28;24.10;47.50
2749;DHT22;1382;52.142;11.618;2023-08-07T10:52:55;24.00;48.40
2749;DHT22;1382;52.142;11.618;2023-08-07T10:55:22;24.00;49.70
2749;DHT22;1382;52.142;11.618;2023-08-07T10:57:49;24.00;50.40
2749;DHT22;1382;52.142;11.618;2023-08-07T11:00:18;23.90;50.30
2749;DHT22;1382;52.142;11.618;2023-08-07T11:02:48;23.90;50.90
2749;DHT22;1382;52.142;11.618;2023-08-07T11:05:15;23.80;51.40
2749;DHT22;1382;52.142;11.618;2023-08-07T11:07:42;23.90;51.70
2749;DHT22;1382;52.142;11.618;2023-08-07T11:10:12;23.80;51.90
2749;DHT22;1382;52.142;11.618;2023-08-07T11:12:40;23.80;52.00
2749;DHT22;1382;52.142;11.618;2023-08-07T11:15:07;23.80;51.30
2749;DHT22;1382;52.142;11.618;2023-08-07T11:17:39;23.80;50.60
2749;DHT22;1382;52.142;11.618;2023-08-07T11:20:07;23.90;49.90
2749;DHT22;1382;52.142;11.618;2023-08-07T11:22:35;23.80;50.10
2749;DHT22;1382;52.142;11.618;2023-08-07T11:25:02;23.90;50.10
2749;DHT22;1382;52.142;11.618;2023-08-07T11:27:29;23.90;50.10
2749;DHT22;1382;52.142;11.618;2023-08-07T11:29:56;23.90;50.00
2749;DHT22;1382;52.142;11.618;2023-08-07T11:32:23;24.00;49.70
2749;DHT22;1382;52.142;11.618;2023-08-07T11:34:51;24.10;49.20
2749;DHT22;1382;52.142;11.618;2023-08-07T11:37:19;24.30;49.10
2749;DHT22;1382;52.142;11.618;2023-08-07T11:39:45;24.10;47.90
2749;DHT22;1382;52.142;11.618;2023-08-07T11:42:13;24.10;47.30
2749;DHT22;1382;52.142;11.618;2023-08-07T11:44:40;24.20;47.10
2749;DHT22;1382;52.142;11.618;2023-08-07T11:47:08;24.20;47.40
2749;DHT22;1382;52.142;11.618;2023-08-07T11:49:35;24.20;47.00
2749;DHT22;1382;52.142;11.618;2023-08-07T11:52:05;24.20;47.00
2749;DHT22;1382;52.142;11.618;2023-08-07T11:54:32;24.30;47.50
2749;DHT22;1382;52.142;11.618;2023-08-07T11:56:59;24.30;47.50
2749;DHT22;1382;52.142;11.618;2023-08-07T11:59:26;24.40;48.90
2749;DHT22;1382;52.142;11.618;2023-08-07T12:01:53;24.50;48.30
2749;DHT22;1382;52.142;11.618;2023-08-07T12:04:20;24.60;47.90
2749;DHT22;1382;52.142;11.618;2023-08-07T12:06:53;24.60;47.70
2749;DHT22;1382;52.142;11.618;2023-08-07T12:09:23;24.80;48.20
2749;DHT22;1382;52.142;11.618;2023-08-07T12:11:50;24.70;49.40
2749;DHT22;1382;52.142;11.618;2023-08-07T12:14:21;24.70;50.10
2749;DHT22;1382;52.142;11.618;2023-08-07T12:16:48;24.80;50.30
2749;DHT22;1382;52.142;11.618;2023-08-07T12:19:15;24.80;50.40
2749;DHT22;1382;52.142;11.618;2023-08-07T12:21:42;24.80;49.80
2749;DHT22;1382;52.142;11.618;2023-08-07T12:24:09;24.80;49.30
2749;DHT22;1382;52.142;11.618;2023-08-07T12:26:37;24.80;48.80
2749;DHT22;1382;52.142;11.618;2023-08-07T12:29:04;24.70;47.80
2749;DHT22;1382;52.142;11.618;2023-08-07T12:31:31;24.60;47.70
2749;DHT22;1382;52.142;11.618;2023-08-07T12:33:58;24.50;48.30
2749;DHT22;1382;52.142;11.618;2023-08-07T12:36:45;24.50;48.20
2749;DHT22;1382;52.142;11.618;2023-08-07T12:39:12;24.30;48.60
2749;DHT22;1382;52.142;11.618;2023-08-07T12:41:40;24.10;48.50
2749;DHT22;1382;52.142;11.618;2023-08-07T12:44:09;23.90;49.70
2749;DHT22;1382;52.142;11.618;2023-08-07T12:46:36;23.80;48.50
2749;DHT22;1382;52.142;11.618;2023-08-07T12:51:33;23.80;47.60
2749;DHT22;1382;52.142;11.618;2023-08-07T12:54:00;23.80;47.40
2749;DHT22;1382;52.142;11.618;2023-08-07T12:56:27;23.60;45.80
2749;DHT22;1382;52.142;11.618;2023-08-07T12:58:55;23.60;46.10
2749;DHT22;1382;52.142;11.618;2023-08-07T13:01:22;23.60;44.80
2749;DHT22;1382;52.142;11.618;2023-08-07T13:03:49;23.50;45.70
2749;DHT22;1382;52.142;11.618;2023-08-07T13:06:16;23.60;45.40
2749;DHT22;1382;52.142;11.618;2023-08-07T13:08:43;23.60;45.20
2749;DHT22;1382;52.142;11.618;2023-08-07T13:11:09;23.60;45.50
2749;DHT22;1382;52.142;11.618;2023-08-07T13:13:36;23.60;45.50
2749;DHT22;1382;52.142;11.618;2023-08-07T13:16:05;23.60;46.60
2749;DHT22;1382;52.142;11.618;2023-08-07T13:18:32;23.60;46.30
2749;DHT22;1382;52.142;11.618;2023-08-07T13:20:59;23.70;45.70
2749;DHT22;1382;52.142;11.618;2023-08-07T13:23:26;23.70;46.10
2749;DHT22;1382;52.142;11.618;2023-08-07T13:25:53;23.70;45.40
2749;DHT22;1382;52.142;11.618;2023-08-07T13:28:19;23.70;45.60
2749;DHT22;1382;52.142;11.618;2023-08-07T13:30:46;23.70;45.60
2749;DHT22;1382;52.142;11.618;2023-08-07T13:33:14;23.70;46.00
2749;DHT22;1382;52.142;11.618;2023-08-07T13:35:41;23.70;46.90
2749;DHT22;1382;52.142;11.618;2023-08-07T13:38:08;23.80;46.40
2749;DHT22;1382;52.142;11.618;2023-08-07T13:40:35;23.90;46.10
2749;DHT22;1382;52.142;11.618;2023-08-07T13:43:02;23.90;46.50
2749;DHT22;1382;52.142;11.618;2023-08-07T13:45:28;24.10;46.60
2749;DHT22;1382;52.142;11.618;2023-08-07T13:47:55;24.20;45.90
2749;DHT22;1382;52.142;11.618;2023-08-07T13:50:23;24.30;44.90
2749;DHT22;1382;52.142;11.618;2023-08-07T13:52:50;24.40;45.10
2749;DHT22;1382;52.142;11.618;2023-08-07T13:55:34;24.40;45.00
2749;DHT22;1382;52.142;11.618;2023-08-07T13:58:01;24.40;46.10
2749;DHT22;1382;52.142;11.618;2023-08-07T14:00:27;24.40;49.30
2749;DHT22;1382;52.142;11.618;2023-08-07T14:02:54;24.20;50.50
2749;DHT22;1382;52.142;11.618;2023-08-07T14:05:21;24.10;50.70
2749;DHT22;1382;52.142;11.618;2023-08-07T14:07:49;24.10;50.00
2749;DHT22;1382;52.142;11.618;2023-08-07T14:10:17;24.20;49.60
2749;DHT22;1382;52.142;11.618;2023-08-07T14:12:44;24.20;47.70
2749;DHT22;1382;52.142;11.618;2023-08-07T14:15:11;24.20;48.00
2749;DHT22;1382;52.142;11.618;2023-08-07T14:17:38;24.10;45.70
2749;DHT22;1382;52.142;11.618;2023-08-07T14:20:06;24.00;44.80
2749;DHT22;1382;52.142;11.618;2023-08-07T14:22:33;23.90;44.70
2749;DHT22;1382;52.142;11.618;2023-08-07T14:25:01;23.80;44.50
2749;DHT22;1382;52.142;11.618;2023-08-07T14:27:28;23.70;46.10
2749;DHT22;1382;52.142;11.618;2023-08-07T14:29:55;23.70;45.50
2749;DHT22;1382;52.142;11.618;2023-08-07T14:32:22;23.70;44.90
2749;DHT22;1382;52.142;11.618;2023-08-07T14:34:49;23.70;45.00
2749;DHT22;1382;52.142;11.618;2023-08-07T14:37:16;23.70;44.80
2749;DHT22;1382;52.142;11.618;2023-08-07T14:39:43;23.70;45.00
2749;DHT22;1382;52.142;11.618;2023-08-07T14:42:11;23.80;45.10
2749;DHT22;1382;52.142;11.618;2023-08-07T14:44:38;23.90;45.40
2749;DHT22;1382;52.142;11.618;2023-08-07T14:47:05;23.80;44.20
2749;DHT22;1382;52.142;11.618;2023-08-07T14:49:32;23.80;44.20
2749;DHT22;1382;52.142;11.618;2023-08-07T14:51:59;23.90;44.20
2749;DHT22;1382;52.142;11.618;2023-08-07T14:54:26;23.80;44.30
2749;DHT22;1382;52.142;11.618;2023-08-07T14:56:53;23.80;44.30
2749;DHT22;1382;52.142;11.618;2023-08-07T14:59:21;23.80;43.90
2749;DHT22;1382;52.142;11.618;2023-08-07T15:01:48;23.80;44.20
2749;DHT22;1382;52.142;11.618;2023-08-07T15:04:15;23.80;43.70
2749;DHT22;1382;52.142;11.618;2023-08-07T15:06:42;23.90;44.30
2749;DHT22;1382;52.142;11.618;2023-08-07T15:09:09;23.90;42.30
2749;DHT22;1382;52.142;11.618;2023-08-07T15:11:36;23.90;41.90
2749;DHT22;1382;52.142;11.618;2023-08-07T15:14:03;23.80;43.10
2749;DHT22;1382;52.142;11.618;2023-08-07T15:16:32;23.90;42.60
2749;DHT22;1382;52.142;11.618;2023-08-07T15:18:59;23.90;42.90
2749;DHT22;1382;52.142;11.618;2023-08-07T15:21:25;23.90;42.80
2749;DHT22;1382;52.142;11.618;2023-08-07T15:23:52;23.90;42.60
2749;DHT22;1382;52.142;11.618;2023-08-07T15:26:19;23.90;42.50
2749;DHT22;1382;52.142;11.618;2023-08-07T15:28:46;24.00;43.30
2749;DHT22;1382;52.142;11.618;2023-08-07T15:31:13;24.10;42.70
2749;DHT22;1382;52.142;11.618;2023-08-07T15:33:41;24.20;41.70
2749;DHT22;1382;52.142;11.618;2023-08-07T15:36:08;24.20;41.40
2749;DHT22;1382;52.142;11.618;2023-08-07T15:38:35;24.20;42.30
2749;DHT22;1382;52.142;11.618;2023-08-07T15:41:02;24.30;41.70
2749;DHT22;1382;52.142;11.618;2023-08-07T15:43:29;24.30;41.10
2749;DHT22;1382;52.142;11.618;2023-08-07T15:45:55;24.50;42.20
2749;DHT22;1382;52.142;11.618;2023-08-07T15:48:22;24.40;42.00
2749;DHT22;1382;52.142;11.618;2023-08-07T15:50:50;24.60;41.50